sensor_id;sensor_type;location;lat;lon;timestamp;P1;durP1;ratioP1;P2;durP2;ratioP2
61483;SDS011;47349;55.640;37.692;2023-03-31T00:00:32;11.80;;;7.65;;
61483;SDS011;47349;55.640;37.692;2023-03-31T00:03:02;11.38;;;9.00;;
61483;SDS011;47349;55.640;37.692;2023-03-31T00:05:36;8.88;;;6.95;;
61483;SDS011;47349;55.640;37.692;2023-03-31T00:08:09;12.73;;;8.60;;
61483;SDS011;47349;55.640;37.692;2023-03-31T00:10:43;8.65;;;6.72;;
61483;SDS011;47349;55.640;37.692;2023-03-31T00:13:15;10.45;;;7.45;;
61483;SDS011;47349;55.640;37.692;2023-03-31T00:16:39;11.77;;;6.97;;
61483;SDS011;47349;55.640;37.692;2023-03-31T00:19:45;11.52;;;6.82;;
61483;SDS011;47349;55.640;37.692;2023-03-31T00:22:16;10.82;;;7.13;;
61483;SDS011;47349;55.640;37.692;2023-03-31T00:24:55;13.75;;;9.60;;
61483;SDS011;47349;55.640;37.692;2023-03-31T00:27:23;6.57;;;5.88;;
61483;SDS011;47349;55.640;37.692;2023-03-31T00:29:54;9.77;;;7.10;;
61483;SDS011;47349;55.640;37.692;2023-03-31T00:32:22;8.30;;;7.35;;
61483;SDS011;47349;55.640;37.692;2023-03-31T00:34:51;10.20;;;7.68;;
61483;SDS011;47349;55.640;37.692;2023-03-31T00:37:20;9.27;;;7.03;;
61483;SDS011;47349;55.640;37.692;2023-03-31T00:39:48;8.88;;;7.35;;
61483;SDS011;47349;55.640;37.692;2023-03-31T00:42:16;10.98;;;6.90;;
61483;SDS011;47349;55.640;37.692;2023-03-31T00:48:10;8.48;;;6.20;;
61483;SDS011;47349;55.640;37.692;2023-03-31T00:50:48;8.63;;;6.68;;
61483;SDS011;47349;55.640;37.692;2023-03-31T00:53:21;9.93;;;6.93;;
61483;SDS011;47349;55.640;37.692;2023-03-31T00:55:54;8.77;;;6.45;;
61483;SDS011;47349;55.640;37.692;2023-03-31T00:58:25;9.02;;;7.78;;
61483;SDS011;47349;55.640;37.692;2023-03-31T01:00:57;9.80;;;6.05;;
61483;SDS011;47349;55.640;37.692;2023-03-31T01:03:44;8.23;;;6.80;;
61483;SDS011;47349;55.640;37.692;2023-03-31T01:06:13;9.82;;;7.15;;
61483;SDS011;47349;55.640;37.692;2023-03-31T01:08:47;11.13;;;7.80;;
61483;SDS011;47349;55.640;37.692;2023-03-31T01:11:21;11.27;;;7.50;;
61483;SDS011;47349;55.640;37.692;2023-03-31T01:13:55;9.65;;;6.78;;
61483;SDS011;47349;55.640;37.692;2023-03-31T01:16:25;7.85;;;6.40;;
61483;SDS011;47349;55.640;37.692;2023-03-31T01:18:53;9.25;;;6.68;;
61483;SDS011;47349;55.640;37.692;2023-03-31T01:21:32;10.45;;;6.90;;
61483;SDS011;47349;55.640;37.692;2023-03-31T01:24:50;8.80;;;6.97;;
61483;SDS011;47349;55.640;37.692;2023-03-31T01:27:50;9.02;;;7.28;;
61483;SDS011;47349;55.640;37.692;2023-03-31T01:33:43;8.25;;;6.90;;
61483;SDS011;47349;55.640;37.692;2023-03-31T01:45:17;9.00;;;6.20;;
61483;SDS011;47349;55.640;37.692;2023-03-31T01:48:06;8.73;;;6.85;;
61483;SDS011;47349;55.640;37.692;2023-03-31T01:50:54;11.77;;;7.15;;
61483;SDS011;47349;55.640;37.692;2023-03-31T01:59:13;5.95;;;5.35;;
61483;SDS011;47349;55.640;37.692;2023-03-31T02:01:52;6.75;;;5.35;;
61483;SDS011;47349;55.640;37.692;2023-03-31T02:04:27;7.32;;;6.32;;
61483;SDS011;47349;55.640;37.692;2023-03-31T02:07:04;6.75;;;5.93;;
61483;SDS011;47349;55.640;37.692;2023-03-31T02:09:48;5.88;;;5.28;;
61483;SDS011;47349;55.640;37.692;2023-03-31T02:12:20;6.35;;;5.35;;
61483;SDS011;47349;55.640;37.692;2023-03-31T02:15:17;6.93;;;5.80;;
61483;SDS011;47349;55.640;37.692;2023-03-31T02:17:54;7.82;;;5.90;;
61483;SDS011;47349;55.640;37.692;2023-03-31T02:20:39;7.53;;;5.88;;
61483;SDS011;47349;55.640;37.692;2023-03-31T02:23:09;7.57;;;5.53;;
61483;SDS011;47349;55.640;37.692;2023-03-31T02:25:53;9.02;;;7.10;;
61483;SDS011;47349;55.640;37.692;2023-03-31T02:28:28;6.85;;;6.15;;
61483;SDS011;47349;55.640;37.692;2023-03-31T02:33:47;6.45;;;5.40;;
61483;SDS011;47349;55.640;37.692;2023-03-31T02:36:15;7.43;;;5.85;;
61483;SDS011;47349;55.640;37.692;2023-03-31T02:38:46;8.07;;;5.78;;
61483;SDS011;47349;55.640;37.692;2023-03-31T02:41:18;10.95;;;6.45;;
61483;SDS011;47349;55.640;37.692;2023-03-31T02:43:45;6.15;;;5.40;;
61483;SDS011;47349;55.640;37.692;2023-03-31T02:46:12;7.72;;;5.63;;
61483;SDS011;47349;55.640;37.692;2023-03-31T02:48:42;10.50;;;6.68;;
61483;SDS011;47349;55.640;37.692;2023-03-31T03:01:38;9.57;;;5.95;;
61483;SDS011;47349;55.640;37.692;2023-03-31T03:12:47;10.68;;;7.95;;
61483;SDS011;47349;55.640;37.692;2023-03-31T03:15:43;11.40;;;8.05;;
61483;SDS011;47349;55.640;37.692;2023-03-31T03:18:30;7.05;;;6.03;;
61483;SDS011;47349;55.640;37.692;2023-03-31T03:20:57;8.95;;;6.78;;
61483;SDS011;47349;55.640;37.692;2023-03-31T03:25:51;9.55;;;5.55;;
61483;SDS011;47349;55.640;37.692;2023-03-31T03:28:18;10.65;;;6.70;;
61483;SDS011;47349;55.640;37.692;2023-03-31T03:33:12;6.20;;;5.47;;
61483;SDS011;47349;55.640;37.692;2023-03-31T03:35:42;9.35;;;6.38;;
61483;SDS011;47349;55.640;37.692;2023-03-31T03:40:36;15.00;;;5.80;;
61483;SDS011;47349;55.640;37.692;2023-03-31T03:45:30;8.73;;;6.15;;
61483;SDS011;47349;55.640;37.692;2023-03-31T03:47:57;6.97;;;5.65;;
61483;SDS011;47349;55.640;37.692;2023-03-31T03:52:51;6.88;;;5.93;;
61483;SDS011;47349;55.640;37.692;2023-03-31T03:57:45;6.95;;;5.65;;
61483;SDS011;47349;55.640;37.692;2023-03-31T04:00:12;11.85;;;7.63;;
61483;SDS011;47349;55.640;37.692;2023-03-31T04:02:40;8.63;;;6.53;;
61483;SDS011;47349;55.640;37.692;2023-03-31T04:05:08;8.07;;;5.95;;
61483;SDS011;47349;55.640;37.692;2023-03-31T04:07:35;7.70;;;6.35;;
61483;SDS011;47349;55.640;37.692;2023-03-31T04:10:05;7.40;;;6.05;;
61483;SDS011;47349;55.640;37.692;2023-03-31T04:12:33;6.05;;;4.93;;
61483;SDS011;47349;55.640;37.692;2023-03-31T04:15:01;9.43;;;6.43;;
61483;SDS011;47349;55.640;37.692;2023-03-31T04:17:29;10.55;;;7.30;;
61483;SDS011;47349;55.640;37.692;2023-03-31T04:20:00;12.55;;;7.45;;
61483;SDS011;47349;55.640;37.692;2023-03-31T04:22:36;8.20;;;6.13;;
61483;SDS011;47349;55.640;37.692;2023-03-31T04:25:07;8.20;;;5.90;;
61483;SDS011;47349;55.640;37.692;2023-03-31T04:27:43;12.75;;;7.63;;
61483;SDS011;47349;55.640;37.692;2023-03-31T04:30:20;10.45;;;7.10;;
61483;SDS011;47349;55.640;37.692;2023-03-31T04:35:16;11.43;;;8.07;;
61483;SDS011;47349;55.640;37.692;2023-03-31T04:37:49;10.15;;;6.75;;
61483;SDS011;47349;55.640;37.692;2023-03-31T04:40:25;12.43;;;8.23;;
61483;SDS011;47349;55.640;37.692;2023-03-31T04:42:52;7.85;;;6.35;;
61483;SDS011;47349;55.640;37.692;2023-03-31T04:47:46;13.25;;;8.15;;
61483;SDS011;47349;55.640;37.692;2023-03-31T04:52:42;12.05;;;8.85;;
61483;SDS011;47349;55.640;37.692;2023-03-31T04:55:09;14.70;;;9.18;;
61483;SDS011;47349;55.640;37.692;2023-03-31T04:57:38;10.13;;;7.70;;
61483;SDS011;47349;55.640;37.692;2023-03-31T05:00:08;13.05;;;7.55;;
61483;SDS011;47349;55.640;37.692;2023-03-31T05:02:36;12.50;;;7.05;;
61483;SDS011;47349;55.640;37.692;2023-03-31T05:05:03;11.70;;;6.72;;
61483;SDS011;47349;55.640;37.692;2023-03-31T05:07:31;12.13;;;7.45;;
61483;SDS011;47349;55.640;37.692;2023-03-31T05:09:59;14.65;;;7.82;;
61483;SDS011;47349;55.640;37.692;2023-03-31T05:12:32;12.55;;;8.20;;
61483;SDS011;47349;55.640;37.692;2023-03-31T05:15:03;11.32;;;7.13;;
61483;SDS011;47349;55.640;37.692;2023-03-31T05:17:33;8.00;;;6.20;;
61483;SDS011;47349;55.640;37.692;2023-03-31T05:20:01;9.82;;;7.35;;
61483;SDS011;47349;55.640;37.692;2023-03-31T05:22:36;8.95;;;6.80;;
61483;SDS011;47349;55.640;37.692;2023-03-31T05:25:05;10.70;;;6.75;;
61483;SDS011;47349;55.640;37.692;2023-03-31T05:27:34;15.98;;;8.80;;
61483;SDS011;47349;55.640;37.692;2023-03-31T05:30:02;7.40;;;6.00;;
61483;SDS011;47349;55.640;37.692;2023-03-31T05:32:30;7.07;;;5.28;;
61483;SDS011;47349;55.640;37.692;2023-03-31T05:34:57;8.02;;;6.20;;
61483;SDS011;47349;55.640;37.692;2023-03-31T05:37:24;10.23;;;6.32;;
61483;SDS011;47349;55.640;37.692;2023-03-31T05:39:57;12.30;;;7.28;;
61483;SDS011;47349;55.640;37.692;2023-03-31T05:42:24;10.43;;;6.80;;
61483;SDS011;47349;55.640;37.692;2023-03-31T05:47:18;10.00;;;6.90;;
61483;SDS011;47349;55.640;37.692;2023-03-31T05:49:46;6.70;;;5.85;;
61483;SDS011;47349;55.640;37.692;2023-03-31T05:54:40;13.57;;;7.78;;
61483;SDS011;47349;55.640;37.692;2023-03-31T05:57:08;11.57;;;5.68;;
61483;SDS011;47349;55.640;37.692;2023-03-31T05:59:35;11.85;;;7.88;;
61483;SDS011;47349;55.640;37.692;2023-03-31T06:02:04;12.85;;;7.50;;
61483;SDS011;47349;55.640;37.692;2023-03-31T06:04:31;9.70;;;6.40;;
61483;SDS011;47349;55.640;37.692;2023-03-31T06:09:25;13.85;;;9.10;;
61483;SDS011;47349;55.640;37.692;2023-03-31T06:11:54;11.73;;;7.60;;
61483;SDS011;47349;55.640;37.692;2023-03-31T06:14:22;11.73;;;6.88;;
61483;SDS011;47349;55.640;37.692;2023-03-31T06:16:49;10.93;;;7.28;;
61483;SDS011;47349;55.640;37.692;2023-03-31T06:19:16;13.48;;;8.65;;
61483;SDS011;47349;55.640;37.692;2023-03-31T06:21:44;13.10;;;7.95;;
61483;SDS011;47349;55.640;37.692;2023-03-31T06:24:11;10.98;;;6.88;;
61483;SDS011;47349;55.640;37.692;2023-03-31T06:26:38;18.27;;;8.90;;
61483;SDS011;47349;55.640;37.692;2023-03-31T06:29:06;12.88;;;7.70;;
61483;SDS011;47349;55.640;37.692;2023-03-31T06:34:00;12.98;;;7.63;;
61483;SDS011;47349;55.640;37.692;2023-03-31T06:38:54;10.93;;;6.88;;
61483;SDS011;47349;55.640;37.692;2023-03-31T06:41:22;14.68;;;8.93;;
61483;SDS011;47349;55.640;37.692;2023-03-31T06:43:49;16.15;;;7.63;;
61483;SDS011;47349;55.640;37.692;2023-03-31T06:48:43;13.00;;;8.18;;
61483;SDS011;47349;55.640;37.692;2023-03-31T06:51:11;8.65;;;6.47;;
61483;SDS011;47349;55.640;37.692;2023-03-31T06:53:39;17.77;;;8.85;;
61483;SDS011;47349;55.640;37.692;2023-03-31T06:56:06;16.48;;;9.43;;
61483;SDS011;47349;55.640;37.692;2023-03-31T06:58:36;13.43;;;8.73;;
61483;SDS011;47349;55.640;37.692;2023-03-31T07:03:32;13.55;;;8.20;;
61483;SDS011;47349;55.640;37.692;2023-03-31T07:05:59;12.63;;;8.25;;
61483;SDS011;47349;55.640;37.692;2023-03-31T07:08:27;17.13;;;9.50;;
61483;SDS011;47349;55.640;37.692;2023-03-31T07:10:55;18.73;;;9.63;;
61483;SDS011;47349;55.640;37.692;2023-03-31T07:13:24;18.33;;;8.30;;
61483;SDS011;47349;55.640;37.692;2023-03-31T07:15:52;13.18;;;7.00;;
61483;SDS011;47349;55.640;37.692;2023-03-31T07:18:19;10.43;;;6.55;;
61483;SDS011;47349;55.640;37.692;2023-03-31T07:20:47;13.57;;;7.18;;
61483;SDS011;47349;55.640;37.692;2023-03-31T07:23:16;8.65;;;5.88;;
61483;SDS011;47349;55.640;37.692;2023-03-31T07:25:44;13.55;;;8.52;;
61483;SDS011;47349;55.640;37.692;2023-03-31T07:28:12;13.32;;;8.38;;
61483;SDS011;47349;55.640;37.692;2023-03-31T07:30:40;15.38;;;8.95;;
61483;SDS011;47349;55.640;37.692;2023-03-31T07:33:07;15.75;;;8.23;;
61483;SDS011;47349;55.640;37.692;2023-03-31T07:35:41;13.23;;;7.68;;
61483;SDS011;47349;55.640;37.692;2023-03-31T07:38:08;21.90;;;9.05;;
61483;SDS011;47349;55.640;37.692;2023-03-31T07:40:37;12.48;;;7.63;;
61483;SDS011;47349;55.640;37.692;2023-03-31T07:43:06;21.98;;;10.80;;
61483;SDS011;47349;55.640;37.692;2023-03-31T07:48:00;18.02;;;9.85;;
61483;SDS011;47349;55.640;37.692;2023-03-31T07:52:57;18.05;;;10.82;;
61483;SDS011;47349;55.640;37.692;2023-03-31T07:55:24;19.60;;;11.52;;
61483;SDS011;47349;55.640;37.692;2023-03-31T07:57:54;16.50;;;9.20;;
61483;SDS011;47349;55.640;37.692;2023-03-31T08:00:21;18.70;;;10.60;;
61483;SDS011;47349;55.640;37.692;2023-03-31T08:02:48;26.83;;;9.02;;
61483;SDS011;47349;55.640;37.692;2023-03-31T08:05:17;11.48;;;8.52;;
61483;SDS011;47349;55.640;37.692;2023-03-31T08:07:46;17.92;;;10.32;;
61483;SDS011;47349;55.640;37.692;2023-03-31T08:10:22;17.70;;;9.70;;
61483;SDS011;47349;55.640;37.692;2023-03-31T08:12:51;15.10;;;9.50;;
61483;SDS011;47349;55.640;37.692;2023-03-31T08:15:19;17.05;;;10.00;;
61483;SDS011;47349;55.640;37.692;2023-03-31T08:17:46;18.35;;;10.30;;
61483;SDS011;47349;55.640;37.692;2023-03-31T08:22:41;15.93;;;10.50;;
61483;SDS011;47349;55.640;37.692;2023-03-31T08:25:08;20.02;;;10.43;;
61483;SDS011;47349;55.640;37.692;2023-03-31T08:27:36;17.02;;;9.95;;
61483;SDS011;47349;55.640;37.692;2023-03-31T08:30:06;18.23;;;11.00;;
61483;SDS011;47349;55.640;37.692;2023-03-31T08:32:34;22.75;;;11.02;;
61483;SDS011;47349;55.640;37.692;2023-03-31T08:35:02;11.60;;;8.73;;
61483;SDS011;47349;55.640;37.692;2023-03-31T08:37:30;18.05;;;8.40;;
61483;SDS011;47349;55.640;37.692;2023-03-31T08:39:57;15.13;;;8.73;;
61483;SDS011;47349;55.640;37.692;2023-03-31T08:45:06;14.82;;;8.85;;
61483;SDS011;47349;55.640;37.692;2023-03-31T08:47:41;17.50;;;9.80;;
61483;SDS011;47349;55.640;37.692;2023-03-31T08:50:22;19.92;;;9.50;;
61483;SDS011;47349;55.640;37.692;2023-03-31T08:53:03;14.20;;;8.85;;
61483;SDS011;47349;55.640;37.692;2023-03-31T08:55:55;14.13;;;8.80;;
61483;SDS011;47349;55.640;37.692;2023-03-31T09:01:26;15.23;;;9.52;;
61483;SDS011;47349;55.640;37.692;2023-03-31T09:06:55;10.57;;;7.43;;
61483;SDS011;47349;55.640;37.692;2023-03-31T09:12:19;13.85;;;8.13;;
61483;SDS011;47349;55.640;37.692;2023-03-31T09:15:00;12.85;;;7.47;;
61483;SDS011;47349;55.640;37.692;2023-03-31T09:17:43;14.80;;;9.60;;
61483;SDS011;47349;55.640;37.692;2023-03-31T09:20:13;24.60;;;10.57;;
61483;SDS011;47349;55.640;37.692;2023-03-31T09:22:49;13.88;;;9.15;;
61483;SDS011;47349;55.640;37.692;2023-03-31T09:25:27;13.75;;;7.78;;
61483;SDS011;47349;55.640;37.692;2023-03-31T09:30:29;13.57;;;8.88;;
61483;SDS011;47349;55.640;37.692;2023-03-31T09:33:09;17.85;;;10.55;;
61483;SDS011;47349;55.640;37.692;2023-03-31T09:35:41;19.23;;;9.65;;
61483;SDS011;47349;55.640;37.692;2023-03-31T09:38:11;18.88;;;10.93;;
61483;SDS011;47349;55.640;37.692;2023-03-31T09:40:40;22.27;;;11.60;;
61483;SDS011;47349;55.640;37.692;2023-03-31T09:45:47;19.98;;;10.73;;
61483;SDS011;47349;55.640;37.692;2023-03-31T09:48:34;18.35;;;9.43;;
61483;SDS011;47349;55.640;37.692;2023-03-31T09:51:03;14.23;;;7.50;;
61483;SDS011;47349;55.640;37.692;2023-03-31T09:53:46;15.95;;;7.82;;
61483;SDS011;47349;55.640;37.692;2023-03-31T09:59:23;16.65;;;9.25;;
61483;SDS011;47349;55.640;37.692;2023-03-31T10:01:58;20.10;;;8.40;;
61483;SDS011;47349;55.640;37.692;2023-03-31T10:04:29;11.50;;;7.78;;
61483;SDS011;47349;55.640;37.692;2023-03-31T10:07:00;11.77;;;7.75;;
61483;SDS011;47349;55.640;37.692;2023-03-31T10:09:31;18.85;;;6.90;;
61483;SDS011;47349;55.640;37.692;2023-03-31T10:14:39;12.20;;;7.32;;
61483;SDS011;47349;55.640;37.692;2023-03-31T10:17:20;18.08;;;10.32;;
61483;SDS011;47349;55.640;37.692;2023-03-31T10:19:50;17.40;;;8.00;;
61483;SDS011;47349;55.640;37.692;2023-03-31T10:22:28;19.92;;;10.73;;
61483;SDS011;47349;55.640;37.692;2023-03-31T10:25:20;11.48;;;7.88;;
61483;SDS011;47349;55.640;37.692;2023-03-31T10:27:54;19.65;;;8.70;;
61483;SDS011;47349;55.640;37.692;2023-03-31T10:30:23;15.80;;;8.13;;
61483;SDS011;47349;55.640;37.692;2023-03-31T10:32:54;15.98;;;8.15;;
61483;SDS011;47349;55.640;37.692;2023-03-31T10:35:25;17.63;;;7.57;;
61483;SDS011;47349;55.640;37.692;2023-03-31T10:37:58;21.17;;;7.88;;
61483;SDS011;47349;55.640;37.692;2023-03-31T10:40:31;12.57;;;8.23;;
61483;SDS011;47349;55.640;37.692;2023-03-31T10:43:14;15.32;;;8.10;;
61483;SDS011;47349;55.640;37.692;2023-03-31T10:45:47;9.30;;;6.95;;
61483;SDS011;47349;55.640;37.692;2023-03-31T10:50:57;12.55;;;8.23;;
61483;SDS011;47349;55.640;37.692;2023-03-31T10:53:46;11.15;;;7.18;;
61483;SDS011;47349;55.640;37.692;2023-03-31T11:04:46;13.95;;;6.00;;
61483;SDS011;47349;55.640;37.692;2023-03-31T11:16:32;12.73;;;6.68;;
61483;SDS011;47349;55.640;37.692;2023-03-31T11:28:04;14.05;;;9.05;;
61483;SDS011;47349;55.640;37.692;2023-03-31T11:31:09;14.20;;;8.80;;
61483;SDS011;47349;55.640;37.692;2023-03-31T11:33:50;18.33;;;9.63;;
61483;SDS011;47349;55.640;37.692;2023-03-31T11:39:32;11.93;;;7.20;;
61483;SDS011;47349;55.640;37.692;2023-03-31T11:42:26;18.23;;;11.00;;
61483;SDS011;47349;55.640;37.692;2023-03-31T11:45:02;21.48;;;10.45;;
61483;SDS011;47349;55.640;37.692;2023-03-31T11:47:37;19.73;;;10.85;;
61483;SDS011;47349;55.640;37.692;2023-03-31T11:50:10;20.50;;;10.10;;
61483;SDS011;47349;55.640;37.692;2023-03-31T11:52:42;18.08;;;9.55;;
61483;SDS011;47349;55.640;37.692;2023-03-31T11:55:20;18.40;;;10.75;;
61483;SDS011;47349;55.640;37.692;2023-03-31T11:58:09;14.52;;;7.38;;
61483;SDS011;47349;55.640;37.692;2023-03-31T12:00:43;19.40;;;11.02;;
61483;SDS011;47349;55.640;37.692;2023-03-31T12:03:18;16.95;;;10.10;;
61483;SDS011;47349;55.640;37.692;2023-03-31T12:05:55;19.15;;;9.30;;
61483;SDS011;47349;55.640;37.692;2023-03-31T12:08:30;19.02;;;10.90;;
61483;SDS011;47349;55.640;37.692;2023-03-31T12:11:12;18.73;;;9.45;;
61483;SDS011;47349;55.640;37.692;2023-03-31T12:13:50;17.02;;;9.73;;
61483;SDS011;47349;55.640;37.692;2023-03-31T12:16:22;16.77;;;9.93;;
61483;SDS011;47349;55.640;37.692;2023-03-31T12:21:42;20.08;;;10.40;;
61483;SDS011;47349;55.640;37.692;2023-03-31T12:24:14;17.98;;;8.90;;
61483;SDS011;47349;55.640;37.692;2023-03-31T12:29:37;12.77;;;7.05;;
61483;SDS011;47349;55.640;37.692;2023-03-31T12:32:22;15.60;;;9.68;;
61483;SDS011;47349;55.640;37.692;2023-03-31T12:34:55;19.25;;;8.85;;
61483;SDS011;47349;55.640;37.692;2023-03-31T12:52:11;21.65;;;12.63;;
61483;SDS011;47349;55.640;37.692;2023-03-31T12:57:35;20.08;;;10.48;;
61483;SDS011;47349;55.640;37.692;2023-03-31T13:00:12;22.38;;;11.10;;
61483;SDS011;47349;55.640;37.692;2023-03-31T13:02:46;20.75;;;12.98;;
61483;SDS011;47349;55.640;37.692;2023-03-31T13:14:05;16.67;;;7.65;;
61483;SDS011;47349;55.640;37.692;2023-03-31T13:16:40;20.90;;;13.00;;
61483;SDS011;47349;55.640;37.692;2023-03-31T13:19:08;25.17;;;11.95;;
61483;SDS011;47349;55.640;37.692;2023-03-31T13:22:26;18.30;;;10.13;;
61483;SDS011;47349;55.640;37.692;2023-03-31T13:24:33;21.50;;;12.85;;
61483;SDS011;47349;55.640;37.692;2023-03-31T13:30:12;23.10;;;11.88;;
61483;SDS011;47349;55.640;37.692;2023-03-31T13:35:45;23.67;;;11.80;;
61483;SDS011;47349;55.640;37.692;2023-03-31T13:52:03;27.98;;;13.43;;
61483;SDS011;47349;55.640;37.692;2023-03-31T13:54:52;19.70;;;10.52;;
61483;SDS011;47349;55.640;37.692;2023-03-31T14:03:53;24.05;;;11.52;;
61483;SDS011;47349;55.640;37.692;2023-03-31T14:06:34;26.60;;;13.73;;
61483;SDS011;47349;55.640;37.692;2023-03-31T14:09:27;24.75;;;12.57;;
61483;SDS011;47349;55.640;37.692;2023-03-31T14:11:58;22.17;;;12.00;;
61483;SDS011;47349;55.640;37.692;2023-03-31T14:14:26;24.98;;;13.32;;
61483;SDS011;47349;55.640;37.692;2023-03-31T14:21:55;27.77;;;13.18;;
61483;SDS011;47349;55.640;37.692;2023-03-31T14:29:59;23.23;;;13.52;;
61483;SDS011;47349;55.640;37.692;2023-03-31T14:35:40;19.80;;;10.07;;
61483;SDS011;47349;55.640;37.692;2023-03-31T14:38:20;24.92;;;13.93;;
61483;SDS011;47349;55.640;37.692;2023-03-31T14:40:50;26.67;;;13.05;;
61483;SDS011;47349;55.640;37.692;2023-03-31T14:43:24;23.60;;;13.32;;
61483;SDS011;47349;55.640;37.692;2023-03-31T14:45:57;24.15;;;12.82;;
61483;SDS011;47349;55.640;37.692;2023-03-31T14:48:34;22.15;;;12.43;;
61483;SDS011;47349;55.640;37.692;2023-03-31T14:51:12;23.20;;;11.60;;
61483;SDS011;47349;55.640;37.692;2023-03-31T14:53:41;22.80;;;11.57;;
61483;SDS011;47349;55.640;37.692;2023-03-31T14:56:13;24.20;;;12.10;;
61483;SDS011;47349;55.640;37.692;2023-03-31T14:58:46;21.15;;;11.82;;
61483;SDS011;47349;55.640;37.692;2023-03-31T15:01:24;20.25;;;10.73;;
61483;SDS011;47349;55.640;37.692;2023-03-31T15:04:04;19.48;;;10.48;;
61483;SDS011;47349;55.640;37.692;2023-03-31T15:06:36;20.90;;;9.75;;
61483;SDS011;47349;55.640;37.692;2023-03-31T15:09:05;19.27;;;11.32;;
61483;SDS011;47349;55.640;37.692;2023-03-31T15:11:33;20.27;;;12.30;;
61483;SDS011;47349;55.640;37.692;2023-03-31T15:14:01;24.70;;;11.80;;
61483;SDS011;47349;55.640;37.692;2023-03-31T15:16:39;22.77;;;12.38;;
61483;SDS011;47349;55.640;37.692;2023-03-31T15:22:10;21.52;;;11.57;;
61483;SDS011;47349;55.640;37.692;2023-03-31T15:24:39;32.42;;;16.77;;
61483;SDS011;47349;55.640;37.692;2023-03-31T15:29:46;19.60;;;11.60;;
61483;SDS011;47349;55.640;37.692;2023-03-31T15:32:26;20.52;;;10.98;;
61483;SDS011;47349;55.640;37.692;2023-03-31T15:34:55;19.80;;;11.48;;
61483;SDS011;47349;55.640;37.692;2023-03-31T15:37:37;23.23;;;13.35;;
61483;SDS011;47349;55.640;37.692;2023-03-31T15:40:20;24.60;;;13.07;;
61483;SDS011;47349;55.640;37.692;2023-03-31T15:42:57;23.05;;;12.30;;
61483;SDS011;47349;55.640;37.692;2023-03-31T15:45:52;23.95;;;13.43;;
61483;SDS011;47349;55.640;37.692;2023-03-31T15:49:22;23.75;;;12.10;;
61483;SDS011;47349;55.640;37.692;2023-03-31T15:53:28;22.77;;;12.25;;
61483;SDS011;47349;55.640;37.692;2023-03-31T15:57:54;25.10;;;12.70;;
61483;SDS011;47349;55.640;37.692;2023-03-31T16:01:01;26.85;;;14.13;;
61483;SDS011;47349;55.640;37.692;2023-03-31T16:04:07;26.90;;;14.27;;
61483;SDS011;47349;55.640;37.692;2023-03-31T16:11:49;25.95;;;13.40;;
61483;SDS011;47349;55.640;37.692;2023-03-31T16:15:33;26.00;;;13.18;;
61483;SDS011;47349;55.640;37.692;2023-03-31T16:23:14;23.42;;;12.50;;
61483;SDS011;47349;55.640;37.692;2023-03-31T16:26:04;22.02;;;12.68;;
61483;SDS011;47349;55.640;37.692;2023-03-31T16:28:58;24.67;;;12.90;;
61483;SDS011;47349;55.640;37.692;2023-03-31T16:32:15;25.45;;;13.50;;
61483;SDS011;47349;55.640;37.692;2023-03-31T16:35:24;24.40;;;13.15;;
61483;SDS011;47349;55.640;37.692;2023-03-31T16:38:25;26.88;;;13.18;;
61483;SDS011;47349;55.640;37.692;2023-03-31T16:41:24;24.38;;;12.60;;
61483;SDS011;47349;55.640;37.692;2023-03-31T16:44:10;29.98;;;14.20;;
61483;SDS011;47349;55.640;37.692;2023-03-31T16:46:56;32.60;;;14.77;;
61483;SDS011;47349;55.640;37.692;2023-03-31T16:52:36;30.02;;;15.15;;
61483;SDS011;47349;55.640;37.692;2023-03-31T16:55:07;43.78;;;19.05;;
61483;SDS011;47349;55.640;37.692;2023-03-31T16:57:54;31.48;;;15.35;;
61483;SDS011;47349;55.640;37.692;2023-03-31T17:01:04;32.33;;;16.73;;
61483;SDS011;47349;55.640;37.692;2023-03-31T17:03:57;32.20;;;16.38;;
61483;SDS011;47349;55.640;37.692;2023-03-31T17:07:41;34.92;;;17.00;;
61483;SDS011;47349;55.640;37.692;2023-03-31T17:11:03;31.77;;;16.10;;
61483;SDS011;47349;55.640;37.692;2023-03-31T17:13:49;31.00;;;15.27;;
61483;SDS011;47349;55.640;37.692;2023-03-31T17:16:23;30.70;;;13.93;;
61483;SDS011;47349;55.640;37.692;2023-03-31T17:19:07;30.70;;;15.27;;
61483;SDS011;47349;55.640;37.692;2023-03-31T17:22:49;27.02;;;13.27;;
61483;SDS011;47349;55.640;37.692;2023-03-31T17:25:51;26.13;;;11.88;;
61483;SDS011;47349;55.640;37.692;2023-03-31T17:28:35;27.15;;;12.55;;
61483;SDS011;47349;55.640;37.692;2023-03-31T17:31:42;31.45;;;13.93;;
61483;SDS011;47349;55.640;37.692;2023-03-31T17:35:01;29.20;;;14.07;;
61483;SDS011;47349;55.640;37.692;2023-03-31T17:37:43;28.85;;;13.20;;
61483;SDS011;47349;55.640;37.692;2023-03-31T17:40:44;30.38;;;13.40;;
61483;SDS011;47349;55.640;37.692;2023-03-31T17:43:25;30.17;;;13.75;;
61483;SDS011;47349;55.640;37.692;2023-03-31T17:46:36;34.67;;;14.35;;
61483;SDS011;47349;55.640;37.692;2023-03-31T17:49:38;31.13;;;13.63;;
61483;SDS011;47349;55.640;37.692;2023-03-31T17:52:18;32.13;;;13.30;;
61483;SDS011;47349;55.640;37.692;2023-03-31T17:54:48;30.98;;;14.27;;
61483;SDS011;47349;55.640;37.692;2023-03-31T17:57:35;36.33;;;17.10;;
61483;SDS011;47349;55.640;37.692;2023-03-31T18:00:03;34.17;;;17.05;;
61483;SDS011;47349;55.640;37.692;2023-03-31T18:02:38;72.22;;;20.58;;
61483;SDS011;47349;55.640;37.692;2023-03-31T18:05:23;32.28;;;17.85;;
61483;SDS011;47349;55.640;37.692;2023-03-31T18:07:53;33.75;;;15.90;;
61483;SDS011;47349;55.640;37.692;2023-03-31T18:10:39;35.95;;;17.65;;
61483;SDS011;47349;55.640;37.692;2023-03-31T18:13:33;35.95;;;16.85;;
61483;SDS011;47349;55.640;37.692;2023-03-31T18:16:39;33.85;;;15.50;;
61483;SDS011;47349;55.640;37.692;2023-03-31T18:19:41;35.55;;;16.60;;
61483;SDS011;47349;55.640;37.692;2023-03-31T18:22:26;34.60;;;17.48;;
61483;SDS011;47349;55.640;37.692;2023-03-31T18:25:10;34.63;;;17.63;;
61483;SDS011;47349;55.640;37.692;2023-03-31T18:28:12;40.33;;;17.50;;
61483;SDS011;47349;55.640;37.692;2023-03-31T18:35:32;35.72;;;17.77;;
61483;SDS011;47349;55.640;37.692;2023-03-31T18:38:36;38.45;;;18.80;;
61483;SDS011;47349;55.640;37.692;2023-03-31T18:42:45;37.47;;;17.30;;
61483;SDS011;47349;55.640;37.692;2023-03-31T18:45:52;35.28;;;16.38;;
61483;SDS011;47349;55.640;37.692;2023-03-31T18:48:52;33.90;;;17.25;;
61483;SDS011;47349;55.640;37.692;2023-03-31T18:51:39;36.72;;;17.70;;
61483;SDS011;47349;55.640;37.692;2023-03-31T18:54:49;35.55;;;16.80;;
61483;SDS011;47349;55.640;37.692;2023-03-31T18:57:31;33.88;;;16.13;;
61483;SDS011;47349;55.640;37.692;2023-03-31T19:00:16;39.65;;;17.83;;
61483;SDS011;47349;55.640;37.692;2023-03-31T19:03:31;38.90;;;17.88;;
61483;SDS011;47349;55.640;37.692;2023-03-31T19:06:44;33.05;;;17.50;;
61483;SDS011;47349;55.640;37.692;2023-03-31T19:09:53;34.58;;;16.33;;
61483;SDS011;47349;55.640;37.692;2023-03-31T19:12:45;37.17;;;15.65;;
61483;SDS011;47349;55.640;37.692;2023-03-31T19:15:56;28.33;;;14.48;;
61483;SDS011;47349;55.640;37.692;2023-03-31T19:19:08;34.38;;;15.85;;
61483;SDS011;47349;55.640;37.692;2023-03-31T19:21:54;34.67;;;14.57;;